createdAt,value
2022-09-22T00:04:20.770Z,10.12
2022-09-22T00:09:25.243Z,10.10
2022-09-22T00:14:29.260Z,10.05
2022-09-22T00:19:34.462Z,10.04
2022-09-22T00:24:38.691Z,10.10
2022-09-22T00:29:41.655Z,10.13
2022-09-22T00:34:44.434Z,10.00
2022-09-22T00:39:48.546Z,9.97
2022-09-22T00:44:51.320Z,9.96
2022-09-22T00:49:56.346Z,9.90
2022-09-22T00:55:04.586Z,9.82
2022-09-22T01:00:10.475Z,9.78
2022-09-22T01:05:13.961Z,9.76
2022-09-22T01:10:18.664Z,9.71
2022-09-22T01:15:29.238Z,9.71
2022-09-22T01:20:57.475Z,9.74
2022-09-22T01:26:35.898Z,9.69
2022-09-22T01:31:45.011Z,9.65
2022-09-22T01:36:53.482Z,9.68
2022-09-22T01:41:59.327Z,9.61
2022-09-22T01:47:08.484Z,9.58
2022-09-22T01:52:16.567Z,9.59
2022-09-22T01:57:24.919Z,9.58
2022-09-22T02:02:33.810Z,9.61
2022-09-22T02:07:41.134Z,9.61
2022-09-22T02:12:44.022Z,9.64
2022-09-22T02:17:48.376Z,9.65
2022-09-22T02:22:51.196Z,9.60
2022-09-22T02:27:57.093Z,9.47
2022-09-22T02:33:02.350Z,9.41
2022-09-22T02:38:14.340Z,9.34
2022-09-22T02:43:25.265Z,9.31
2022-09-22T02:48:34.201Z,9.30
2022-09-22T02:53:37.465Z,9.22
2022-09-22T02:58:40.322Z,9.28
2022-09-22T03:03:44.472Z,9.20
2022-09-22T03:08:47.486Z,9.04
2022-09-22T03:13:50.473Z,8.96
2022-09-22T03:18:54.573Z,9.01
2022-09-22T03:23:57.452Z,9.02
2022-09-22T03:29:00.193Z,8.94
2022-09-22T03:34:04.500Z,8.84
2022-09-22T03:39:07.258Z,8.82
2022-09-22T03:44:10.372Z,8.81
2022-09-22T03:49:14.475Z,8.88
2022-09-22T03:54:17.684Z,8.86
2022-09-22T03:59:20.371Z,8.82
2022-09-22T04:04:24.612Z,8.90
2022-09-22T04:09:27.370Z,8.95
2022-09-22T04:14:30.374Z,8.93
2022-09-22T04:19:35.646Z,8.96
2022-09-22T04:24:38.507Z,8.98
2022-09-22T04:29:41.314Z,9.02
2022-09-22T04:34:46.541Z,9.06
2022-09-22T04:39:50.326Z,9.05
2022-09-22T04:44:57.036Z,8.98
2022-09-22T04:50:01.291Z,8.87
2022-09-22T04:55:04.443Z,8.85
2022-09-22T05:00:08.927Z,8.84
2022-09-22T05:05:13.246Z,8.88
2022-09-22T05:10:17.885Z,8.94
2022-09-22T05:15:22.734Z,8.89
2022-09-22T05:20:27.203Z,8.86
2022-09-22T05:25:30.153Z,8.90
2022-09-22T05:30:32.864Z,9.05
2022-09-22T05:35:37.294Z,9.12
2022-09-22T05:40:40.131Z,9.25
2022-09-22T05:45:43.878Z,9.36
2022-09-22T05:50:48.140Z,9.48
2022-09-22T05:55:50.908Z,9.76
2022-09-22T06:00:57.286Z,10.11
2022-09-22T06:06:01.602Z,10.48
2022-09-22T06:11:04.398Z,10.72
2022-09-22T06:16:07.488Z,10.98
2022-09-22T06:21:11.840Z,10.88
2022-09-22T06:26:14.624Z,10.84
2022-09-22T06:31:17.638Z,11.35
2022-09-22T06:36:31.370Z,11.87
2022-09-22T06:41:34.794Z,12.61
2022-09-22T06:46:38.971Z,13.23
2022-09-22T06:51:43.187Z,15.39
2022-09-22T06:56:46.346Z,17.91
2022-09-22T07:01:49.511Z,21.35
2022-09-22T07:06:53.728Z,22.26
2022-09-22T07:11:57.329Z,23.48
2022-09-22T07:17:00.238Z,21.61
2022-09-22T07:22:04.424Z,21.77
2022-09-22T07:27:07.602Z,20.94
2022-09-22T07:32:10.815Z,20.02
2022-09-22T07:37:15.539Z,19.22
2022-09-22T07:42:19.964Z,16.59
2022-09-22T07:47:42.928Z,15.08
2022-09-22T07:52:53.168Z,14.84
2022-09-22T07:57:58.414Z,14.71
2022-09-22T08:03:01.569Z,14.71
2022-09-22T08:08:06.035Z,14.72
2022-09-22T08:13:10.009Z,14.80
2022-09-22T08:18:14.350Z,14.81
2022-09-22T08:23:18.472Z,15.03
2022-09-22T08:28:21.719Z,15.20
2022-09-22T08:33:24.548Z,15.38
2022-09-22T08:38:28.809Z,15.29
2022-09-22T08:43:32.362Z,15.51
2022-09-22T08:48:53.170Z,15.62
2022-09-22T08:54:02.454Z,15.67
2022-09-22T08:59:13.202Z,15.74
2022-09-22T09:04:45.241Z,16.08
2022-09-22T09:10:03.165Z,16.13
2022-09-22T09:15:18.926Z,16.33
2022-09-22T09:20:32.453Z,16.32
2022-09-22T09:25:41.194Z,16.40
2022-09-22T09:30:47.767Z,16.28
2022-09-22T09:35:53.438Z,16.45
2022-09-22T09:41:03.776Z,16.34
2022-09-22T09:46:16.486Z,16.51
2022-09-22T09:51:20.519Z,16.59
2022-09-22T09:56:28.063Z,16.67
2022-09-22T10:01:32.447Z,16.77
2022-09-22T10:06:35.458Z,16.79
2022-09-22T10:11:39.583Z,16.92
2022-09-22T10:16:52.707Z,17.04
2022-09-22T10:22:18.294Z,17.19
2022-09-22T10:27:27.731Z,16.93
2022-09-22T10:32:31.232Z,17.34
2022-09-22T10:37:34.649Z,17.33
2022-09-22T10:42:43.432Z,17.50
2022-09-22T10:47:58.993Z,17.64
2022-09-22T10:53:17.538Z,17.20
2022-09-22T10:58:37.870Z,17.65
2022-09-22T11:04:06.700Z,17.62
2022-09-22T11:09:37.344Z,17.78
2022-09-22T11:15:00.326Z,17.92
2022-09-22T11:20:22.970Z,17.58
2022-09-22T11:25:49.306Z,17.93
2022-09-22T11:30:54.253Z,17.47
2022-09-22T11:36:28.767Z,17.67
2022-09-22T11:41:34.995Z,17.81
2022-09-22T11:46:55.852Z,18.43
2022-09-22T11:52:17.161Z,18.87
2022-09-22T11:57:24.680Z,18.68
2022-09-22T12:02:32.735Z,18.49
2022-09-22T12:07:44.864Z,18.25
2022-09-22T12:12:50.508Z,17.96
2022-09-22T12:18:02.556Z,18.32
2022-09-22T12:23:24.499Z,18.56
2022-09-22T12:28:30.411Z,19.10
2022-09-22T12:33:35.352Z,19.17
2022-09-22T12:38:40.271Z,19.05
2022-09-22T12:43:43.105Z,19.11
2022-09-22T12:48:47.638Z,19.04
2022-09-22T12:53:52.031Z,18.95
2022-09-22T12:58:54.903Z,18.61
2022-09-22T13:04:08.024Z,18.63
2022-09-22T13:09:21.537Z,18.59
2022-09-22T13:15:00.098Z,18.80
2022-09-22T13:20:14.473Z,18.94
2022-09-22T13:25:24.775Z,18.31
2022-09-22T13:30:27.601Z,17.89
2022-09-22T13:35:34.878Z,18.02
2022-09-22T13:40:39.366Z,18.12
2022-09-22T13:45:45.859Z,18.25
2022-09-22T13:50:54.534Z,18.30
2022-09-22T13:56:00.155Z,18.21
2022-09-22T14:01:19.830Z,18.12
2022-09-22T14:06:25.934Z,17.99
2022-09-22T14:11:33.354Z,18.28
2022-09-22T14:16:46.890Z,18.46
2022-09-22T14:21:52.595Z,18.39
2022-09-22T14:27:03.949Z,18.21
2022-09-22T14:32:13.398Z,18.01
2022-09-22T14:37:23.554Z,18.13
2022-09-22T14:42:29.703Z,18.14
2022-09-22T14:47:39.296Z,18.19
2022-09-22T14:52:58.077Z,18.22
2022-09-22T14:58:06.305Z,18.07
2022-09-22T15:03:20.570Z,17.98
2022-09-22T15:08:27.832Z,17.91
2022-09-22T15:13:39.416Z,17.96
2022-09-22T15:18:42.257Z,17.76
2022-09-22T15:23:48.000Z,17.68
2022-09-22T15:28:53.482Z,17.47
2022-09-22T15:34:00.013Z,17.48
2022-09-22T15:39:08.915Z,17.36
2022-09-22T15:44:13.278Z,17.46
2022-09-22T15:49:21.018Z,17.46
2022-09-22T15:54:25.055Z,17.37
2022-09-22T15:59:33.058Z,17.30
2022-09-22T16:04:36.338Z,17.29
2022-09-22T16:09:39.195Z,17.27
2022-09-22T16:14:43.452Z,17.16
2022-09-22T16:19:46.202Z,17.04
2022-09-22T16:24:48.973Z,17.02
2022-09-22T16:29:53.107Z,16.95
2022-09-22T16:34:55.921Z,16.88
2022-09-22T16:40:01.164Z,16.75
2022-09-22T16:45:06.155Z,16.74
2022-09-22T16:50:12.459Z,16.71
2022-09-22T16:55:15.517Z,16.63
2022-09-22T17:00:29.710Z,16.54
2022-09-22T17:05:34.240Z,16.44
2022-09-22T17:10:36.946Z,16.40
2022-09-22T17:15:41.491Z,16.16
2022-09-22T17:20:44.566Z,15.83
2022-09-22T17:25:47.901Z,15.71
2022-09-22T17:30:58.589Z,15.71
2022-09-22T17:36:03.082Z,15.87
2022-09-22T17:41:10.866Z,15.81
2022-09-22T17:46:16.972Z,15.72
2022-09-22T17:51:52.839Z,15.56
2022-09-22T17:56:55.652Z,15.39
2022-09-22T18:02:00.971Z,15.23
2022-09-22T18:07:06.843Z,15.20
2022-09-22T18:12:11.973Z,15.05
2022-09-22T18:17:18.532Z,14.88
2022-09-22T18:28:38.441Z,14.67
2022-09-22T18:34:16.964Z,14.63
2022-09-22T18:39:47.297Z,14.48
2022-09-22T18:44:50.356Z,14.40
2022-09-22T18:49:54.637Z,14.37
2022-09-22T18:54:58.911Z,14.38
2022-09-22T19:00:01.897Z,14.34
2022-09-22T19:05:06.889Z,14.15
2022-09-22T19:10:10.618Z,13.83
2022-09-22T19:15:16.665Z,13.79
2022-09-22T19:20:23.971Z,13.68
2022-09-22T19:25:27.467Z,13.54
2022-09-22T19:30:31.625Z,13.37
2022-09-22T19:35:39.209Z,13.30
2022-09-22T19:40:42.496Z,13.33
2022-09-22T19:45:45.376Z,13.35
2022-09-22T19:50:49.643Z,13.22
2022-09-22T19:55:53.775Z,13.10
2022-09-22T20:00:56.745Z,13.00
2022-09-22T20:06:00.992Z,12.91
2022-09-22T20:11:23.030Z,12.86
2022-09-22T20:16:28.203Z,12.86
2022-09-22T20:21:33.387Z,12.77
2022-09-22T20:26:36.201Z,12.65
2022-09-22T20:31:39.009Z,12.65
2022-09-22T20:36:44.232Z,12.63
2022-09-22T20:41:47.209Z,12.67
2022-09-22T20:46:50.050Z,12.60
2022-09-22T20:51:54.590Z,12.42
2022-09-22T20:56:57.394Z,12.50
2022-09-22T21:02:00.796Z,12.38
2022-09-22T21:07:05.228Z,12.27
2022-09-22T21:12:08.435Z,12.14
2022-09-22T21:17:11.259Z,12.09
2022-09-22T21:22:15.631Z,12.00
2022-09-22T21:27:18.370Z,11.96
2022-09-22T21:32:21.145Z,11.90
2022-09-22T21:37:25.681Z,11.88
2022-09-22T21:42:28.497Z,11.83
2022-09-22T21:47:31.483Z,11.85
2022-09-22T21:52:38.406Z,11.77
2022-09-22T21:57:41.221Z,11.75
2022-09-22T22:03:01.545Z,11.78
2022-09-22T22:08:05.830Z,11.64
2022-09-22T22:13:10.400Z,11.63
2022-09-22T22:18:13.212Z,11.72
2022-09-22T22:23:18.711Z,11.61
2022-09-22T22:28:22.784Z,11.60
2022-09-22T22:33:25.563Z,11.47
2022-09-22T22:38:30.989Z,11.41
2022-09-22T22:43:33.873Z,11.43
2022-09-22T22:48:36.899Z,11.38
2022-09-22T22:53:41.804Z,11.31
2022-09-22T22:58:45.715Z,11.35
2022-09-22T23:03:52.207Z,11.12
2022-09-22T23:08:57.262Z,11.20
2022-09-22T23:14:03.029Z,11.04
2022-09-22T23:19:09.225Z,11.03
2022-09-22T23:24:16.693Z,11.01
2022-09-22T23:29:19.772Z,10.98
2022-09-22T23:34:22.584Z,10.97
2022-09-22T23:39:26.746Z,10.89
2022-09-22T23:44:29.736Z,10.81
2022-09-22T23:49:32.723Z,10.75
2022-09-22T23:54:36.859Z,10.76
2022-09-22T23:59:39.680Z,10.78
